createdAt,value
2022-08-07T00:02:40.511Z,15.40
2022-08-07T00:07:27.360Z,15.10
2022-08-07T00:12:30.409Z,15.10
2022-08-07T00:17:35.886Z,15.30
2022-08-07T00:22:40.248Z,15.40
2022-08-07T00:27:53.227Z,15.50
2022-08-07T00:32:57.192Z,15.60
2022-08-07T00:38:02.010Z,15.50
2022-08-07T00:43:09.832Z,15.40
2022-08-07T00:48:13.666Z,15.40
2022-08-07T00:53:17.821Z,15.30
2022-08-07T00:58:22.508Z,14.90
2022-08-07T01:03:55.333Z,14.90
2022-08-07T01:08:58.407Z,14.90
2022-08-07T01:14:02.640Z,14.90
2022-08-07T01:19:18.346Z,14.90
2022-08-07T01:24:23.906Z,15.00
2022-08-07T01:29:31.363Z,14.90
2022-08-07T01:34:36.592Z,14.90
2022-08-07T01:39:46.918Z,14.90
2022-08-07T01:44:49.959Z,14.70
2022-08-07T01:49:54.669Z,14.70
2022-08-07T01:55:02.091Z,14.70
2022-08-07T02:00:13.059Z,14.40
2022-08-07T02:05:48.320Z,14.20
2022-08-07T02:10:55.149Z,14.30
2022-08-07T02:16:00.918Z,14.40
2022-08-07T02:21:06.545Z,14.30
2022-08-07T02:26:32.314Z,14.10
2022-08-07T02:31:35.871Z,14.20
2022-08-07T02:36:39.969Z,14.00
2022-08-07T02:41:50.540Z,13.80
2022-08-07T02:46:58.957Z,13.80
2022-08-07T02:52:05.696Z,13.70
2022-08-07T02:57:15.089Z,13.70
2022-08-07T03:02:19.874Z,13.60
2022-08-07T03:08:05.109Z,13.20
2022-08-07T03:12:49.525Z,13.10
2022-08-07T03:17:54.930Z,13.20
2022-08-07T03:22:59.464Z,13.20
2022-08-07T03:28:37.341Z,13.20
2022-08-07T03:33:32.251Z,13.30
2022-08-07T03:38:44.244Z,13.40
2022-08-07T03:43:57.283Z,13.30
2022-08-07T03:49:02.918Z,13.10
2022-08-07T03:54:35.182Z,13.00
2022-08-07T03:59:32.267Z,12.80
2022-08-07T04:04:35.906Z,13.00
2022-08-07T04:09:45.324Z,13.10
2022-08-07T04:14:55.124Z,13.20
